Time;durP1;ratioP1;P1;durP2;ratioP2;P2;SDS_P1;SDS_P2;PMS_P1;PMS_P2;Temp;Humidity;BMP_temperature;BMP_pressure;BME280_temperature;BME280_humidity;BME280_pressure;Samples;Min_cycle;Max_cycle;Signal;HPM_P1;HPM_P2
2021/07/31 00:02:10;;;;;;;1.08;0.93;;;26.60;47.90;;;;;;5133883;28;20055;-51
2021/07/31 00:04:36;;;;;;;1.20;1.10;;;26.60;47.90;;;;;;5134153;28;20495;-52
2021/07/31 00:07:02;;;;;;;0.70;0.70;;;26.60;47.90;;;;;;5133818;28;20059;-52
2021/07/31 00:09:27;;;;;;;0.70;0.70;;;26.60;47.90;;;;;;5134372;28;20118;-53
2021/07/31 00:11:53;;;;;;;0.68;0.68;;;26.60;48.00;;;;;;5133887;28;20047;-54
2021/07/31 00:14:18;;;;;;;0.80;0.80;;;26.60;48.00;;;;;;5133768;28;20043;-49
2021/07/31 00:16:44;;;;;;;1.00;0.95;;;26.50;48.00;;;;;;5115086;28;20057;-54
2021/07/31 00:19:10;;;;;;;0.70;0.70;;;26.50;48.00;;;;;;5133709;28;20518;-49
2021/07/31 00:21:35;;;;;;;0.75;0.75;;;26.50;48.00;;;;;;5133630;28;20054;-48
2021/07/31 00:24:01;;;;;;;0.80;0.80;;;26.50;48.00;;;;;;5133618;28;20055;-50
2021/07/31 00:26:27;;;;;;;1.13;0.85;;;26.50;48.00;;;;;;5133629;28;20100;-49
2021/07/31 00:28:52;;;;;;;0.90;0.90;;;26.50;48.10;;;;;;5133334;28;20131;-51
2021/07/31 00:31:18;;;;;;;1.17;1.08;;;26.50;48.10;;;;;;5133349;28;20073;-54
2021/07/31 00:33:44;;;;;;;0.90;0.90;;;26.50;48.10;;;;;;5133246;28;20059;-52
2021/07/31 00:36:10;;;;;;;0.82;0.82;;;26.50;48.10;;;;;;5133455;28;20406;-51
2021/07/31 00:38:35;;;;;;;1.08;0.98;;;26.50;48.10;;;;;;5133142;28;20112;-50
2021/07/31 00:41:01;;;;;;;0.90;0.90;;;26.50;48.20;;;;;;5133314;28;20487;-54
2021/07/31 00:43:26;;;;;;;0.90;0.77;;;26.50;48.20;;;;;;5115134;28;20096;-54
2021/07/31 00:45:52;;;;;;;1.05;0.95;;;26.40;48.20;;;;;;5117789;28;20490;-52
2021/07/31 00:48:18;;;;;;;0.68;0.68;;;26.40;48.20;;;;;;5137321;28;20104;-51
2021/07/31 00:50:43;;;;;;;1.25;0.82;;;26.50;48.30;;;;;;5136744;28;20051;-53
2021/07/31 00:53:09;;;;;;;0.88;0.88;;;26.40;48.30;;;;;;5137134;28;20111;-53
2021/07/31 00:55:36;;;;;;;0.88;0.88;;;26.40;48.30;;;;;;5118365;28;20452;-52
2021/07/31 00:58:02;;;;;;;0.80;0.80;;;26.40;48.30;;;;;;5136757;28;20051;-49
2021/07/31 01:00:36;;;;;;;0.90;0.90;;;26.40;48.30;;;;;;5118880;28;20501;-51
2021/07/31 01:03:02;;;;;;;0.88;0.82;;;26.40;48.30;;;;;;5137029;28;20047;-48
2021/07/31 01:05:27;;;;;;;1.00;0.90;;;26.40;48.30;;;;;;5136747;28;20058;-51
2021/07/31 01:07:53;;;;;;;1.20;1.10;;;26.40;48.30;;;;;;5136573;28;20054;-51
2021/07/31 01:10:20;;;;;;;0.70;0.70;;;26.40;48.40;;;;;;5118750;28;20055;-48
2021/07/31 01:12:47;;;;;;;1.00;0.90;;;26.30;48.30;;;;;;5118087;28;20141;-55
2021/07/31 01:15:15;;;;;;;0.75;0.75;;;26.30;48.30;;;;;;5117989;28;20143;-53
2021/07/31 01:17:41;;;;;;;1.15;1.00;;;26.30;48.30;;;;;;5136477;28;20054;-52
2021/07/31 01:20:08;;;;;;;0.90;0.90;;;26.40;48.50;;;;;;5118013;28;20078;-52
2021/07/31 01:22:33;;;;;;;0.80;0.80;;;26.30;48.40;;;;;;5118028;28;20047;-52
2021/07/31 01:25:04;;;;;;;1.00;1.00;;;26.30;48.40;;;;;;5118565;28;20475;-53
2021/07/31 01:27:30;;;;;;;1.70;0.88;;;26.30;48.40;;;;;;5136218;28;20059;-53
2021/07/31 01:29:56;;;;;;;1.00;0.90;;;26.30;48.40;;;;;;5118478;28;20149;-54
2021/07/31 01:32:22;;;;;;;0.95;0.95;;;26.30;48.40;;;;;;5118332;28;20633;-52
2021/07/31 01:34:48;;;;;;;0.95;0.80;;;26.30;48.50;;;;;;5136744;28;20088;-50
2021/07/31 01:37:14;;;;;;;1.00;0.90;;;26.30;48.50;;;;;;5136283;28;20464;-51
2021/07/31 01:39:41;;;;;;;0.82;0.82;;;26.30;48.50;;;;;;5117848;28;20089;-50
2021/07/31 01:42:07;;;;;;;0.85;0.85;;;26.30;48.60;;;;;;5117627;28;20058;-53
2021/07/31 01:44:35;;;;;;;1.10;0.95;;;26.30;48.60;;;;;;5117743;28;20156;-52
2021/07/31 01:47:02;;;;;;;0.75;0.75;;;26.20;48.50;;;;;;5136196;28;20047;-54
2021/07/31 01:49:28;;;;;;;0.90;0.90;;;26.20;48.50;;;;;;5136482;28;20058;-54
2021/07/31 01:52:01;;;;;;;1.00;0.90;;;26.20;48.50;;;;;;5117996;28;20039;-54
2021/07/31 01:54:28;;;;;;;0.80;0.80;;;26.20;48.60;;;;;;5135966;28;20058;-50
2021/07/31 01:56:55;;;;;;;0.90;0.90;;;26.20;48.60;;;;;;5116852;28;20051;-52
2021/07/31 01:59:25;;;;;;;1.10;1.00;;;26.20;48.60;;;;;;5116014;28;20085;-51
2021/07/31 02:01:51;;;;;;;0.85;0.82;;;26.20;48.60;;;;;;5117992;28;20054;-50
2021/07/31 02:04:21;;;;;;;1.50;0.93;;;26.20;48.70;;;;;;5117146;28;20051;-51
2021/07/31 02:07:12;;;;;;;;;;;26.20;48.70;;;;;;5135845;28;20388;-53
2021/07/31 02:09:39;;;;;;;1.23;1.05;;;26.20;48.80;;;;;;5117259;28;19915;-50
2021/07/31 02:12:06;;;;;;;0.70;0.70;;;26.10;48.60;;;;;;5117161;28;20118;-49
2021/07/31 02:14:32;;;;;;;1.50;0.85;;;26.10;48.70;;;;;;5117225;28;20496;-52
2021/07/31 02:16:57;;;;;;;1.00;0.93;;;26.10;48.70;;;;;;5135091;28;20047;-54
2021/07/31 02:19:24;;;;;;;1.13;1.02;;;26.10;48.70;;;;;;5116882;28;20483;-53
2021/07/31 02:21:59;;;;;;;0.80;0.80;;;26.10;48.80;;;;;;5117495;28;20043;-50
2021/07/31 02:24:51;;;;;;;0.93;0.93;;;26.10;48.80;;;;;;5111068;28;20070;-52
2021/07/31 02:27:39;;;;;;;0.90;0.90;;;26.10;48.80;;;;;;5135362;28;20059;-49
2021/07/31 02:30:09;;;;;;;1.38;0.80;;;26.00;48.80;;;;;;5117116;28;20055;-49
2021/07/31 02:32:38;;;;;;;0.80;0.80;;;26.00;48.80;;;;;;5117276;28;20043;-53
2021/07/31 02:35:04;;;;;;;1.05;1.02;;;26.00;48.80;;;;;;5115698;28;20100;-48
2021/07/31 02:37:37;;;;;;;0.90;0.88;;;26.00;48.90;;;;;;5115702;28;20052;-52
2021/07/31 02:40:04;;;;;;;0.88;0.88;;;26.00;48.90;;;;;;5135267;28;20077;-52
2021/07/31 02:42:31;;;;;;;0.85;0.80;;;26.00;48.90;;;;;;5116986;28;20047;-53
2021/07/31 02:45:05;;;;;;;0.85;0.85;;;26.00;48.90;;;;;;5135006;28;20043;-49
2021/07/31 02:47:32;;;;;;;0.88;0.88;;;26.00;48.90;;;;;;5116944;28;20137;-52
2021/07/31 02:49:59;;;;;;;0.90;0.90;;;26.00;49.00;;;;;;5134957;28;20075;-50
2021/07/31 02:52:25;;;;;;;0.88;0.88;;;26.00;49.00;;;;;;5115871;28;20098;-49
2021/07/31 02:54:57;;;;;;;0.88;0.88;;;25.90;49.00;;;;;;5134952;28;20054;-49
2021/07/31 02:57:23;;;;;;;0.90;0.90;;;25.90;49.00;;;;;;5116494;28;20138;-48
2021/07/31 02:59:49;;;;;;;2.35;1.00;;;25.90;49.00;;;;;;5116520;28;20089;-48
2021/07/31 03:02:19;;;;;;;0.80;0.80;;;26.00;49.10;;;;;;5134888;28;20054;-49
2021/07/31 03:04:47;;;;;;;0.80;0.80;;;25.90;49.00;;;;;;5134840;28;20051;-53
2021/07/31 03:07:19;;;;;;;1.10;1.00;;;25.90;49.10;;;;;;5135408;27;20062;-52
2021/07/31 03:09:47;;;;;;;1.13;1.02;;;25.90;49.10;;;;;;5135016;28;20097;-49
2021/07/31 03:12:14;;;;;;;1.10;0.98;;;25.90;49.10;;;;;;5116105;28;20054;-53
2021/07/31 03:14:41;;;;;;;0.88;0.80;;;25.90;49.10;;;;;;5116151;28;20106;-50
2021/07/31 03:17:06;;;;;;;1.27;0.85;;;25.90;49.20;;;;;;5134601;28;20051;-48
2021/07/31 03:19:32;;;;;;;0.80;0.80;;;25.90;49.10;;;;;;5134421;28;20410;-51
2021/07/31 03:21:58;;;;;;;1.00;0.90;;;25.80;49.70;;;;;;5116117;28;20136;-49
2021/07/31 03:24:34;;;;;;;0.90;0.90;;;25.90;49.20;;;;;;5115971;28;20058;-49
2021/07/31 03:27:01;;;;;;;0.98;0.98;;;25.90;49.20;;;;;;5115799;28;20074;-50
2021/07/31 03:29:46;;;;;;;0.90;0.90;;;25.80;49.20;;;;;;5134170;28;20391;-51
2021/07/31 03:32:12;;;;;;;0.90;0.90;;;25.80;49.20;;;;;;5116252;28;20047;-48
2021/07/31 03:34:38;;;;;;;1.10;0.93;;;25.80;49.20;;;;;;5115925;28;20055;-48
2021/07/31 03:37:04;;;;;;;0.90;0.90;;;25.80;49.20;;;;;;5134208;28;20440;-51
2021/07/31 03:39:29;;;;;;;0.90;0.90;;;25.80;49.20;;;;;;5115005;28;20085;-47
2021/07/31 03:41:57;;;;;;;1.20;1.10;;;25.80;49.30;;;;;;5115647;28;20141;-47
2021/07/31 03:44:23;;;;;;;1.15;0.90;;;25.80;49.30;;;;;;5115738;28;20062;-48
2021/07/31 03:46:50;;;;;;;0.73;0.73;;;25.80;49.30;;;;;;5113526;28;20134;-52
2021/07/31 03:49:21;;;;;;;1.25;0.90;;;25.80;49.30;;;;;;5134498;28;20053;-49
2021/07/31 03:51:52;;;;;;;1.95;0.70;;;25.80;49.30;;;;;;5115481;28;20046;-47
2021/07/31 03:54:18;;;;;;;1.08;0.98;;;25.80;49.30;;;;;;5116131;28;20055;-48
2021/07/31 03:56:43;;;;;;;1.05;1.02;;;25.80;49.30;;;;;;5115994;28;20387;-49
2021/07/31 03:59:19;;;;;;;1.02;1.02;;;25.80;49.30;;;;;;5116023;28;20138;-52
2021/07/31 04:01:45;;;;;;;1.05;0.90;;;25.80;49.30;;;;;;5115541;28;20554;-51
2021/07/31 04:04:13;;;;;;;1.00;1.00;;;25.80;49.30;;;;;;5098638;28;20054;-51
2021/07/31 04:06:42;;;;;;;0.82;0.82;;;25.80;49.30;;;;;;5115376;28;20058;-50
2021/07/31 04:09:26;;;;;;;1.00;1.00;;;25.80;49.40;;;;;;5133843;28;20113;-53
2021/07/31 04:12:18;;;;;;;0.90;0.90;;;25.80;49.40;;;;;;5094290;28;20487;-51
2021/07/31 04:15:03;;;;;;;0.95;0.95;;;25.80;49.40;;;;;;5117342;28;20509;-50
2021/07/31 04:17:29;;;;;;;0.93;0.93;;;25.80;49.40;;;;;;5133353;28;20055;-52
2021/07/31 04:19:55;;;;;;;1.17;1.08;;;25.70;49.40;;;;;;5114631;28;20567;-50
2021/07/31 04:22:22;;;;;;;1.02;0.93;;;25.80;49.40;;;;;;5115126;28;20538;-51
2021/07/31 04:24:50;;;;;;;1.00;0.90;;;25.70;49.40;;;;;;5133908;28;20070;-51
2021/07/31 04:27:17;;;;;;;1.40;1.00;;;25.70;49.40;;;;;;5133486;28;20104;-47
2021/07/31 04:29:43;;;;;;;2.38;0.95;;;25.80;49.50;;;;;;5133488;28;20047;-49
2021/07/31 04:32:09;;;;;;;0.93;0.93;;;25.70;49.40;;;;;;5133266;28;20081;-51
2021/07/31 04:34:35;;;;;;;0.90;0.90;;;25.70;49.40;;;;;;5133427;28;20043;-52
2021/07/31 04:37:01;;;;;;;1.10;0.95;;;25.70;49.40;;;;;;5133423;28;20136;-48
2021/07/31 04:39:26;;;;;;;1.15;1.05;;;25.70;49.40;;;;;;5133572;28;20058;-50
2021/07/31 04:41:52;;;;;;;0.77;0.77;;;25.70;49.40;;;;;;5133887;28;20086;-48
2021/07/31 04:44:17;;;;;;;0.85;0.82;;;25.70;49.40;;;;;;5133949;28;20087;-55
2021/07/31 04:46:45;;;;;;;0.95;0.93;;;25.70;49.40;;;;;;5133347;28;20065;-51
2021/07/31 04:49:12;;;;;;;0.98;0.98;;;25.70;49.40;;;;;;5133238;28;20070;-48
2021/07/31 04:51:39;;;;;;;1.63;1.00;;;25.80;49.40;;;;;;5133488;28;21001;-51
2021/07/31 04:54:04;;;;;;;0.85;0.85;;;25.80;49.40;;;;;;5133127;28;20057;-48
2021/07/31 04:56:30;;;;;;;1.20;1.10;;;25.80;49.40;;;;;;5132883;28;20479;-48
2021/07/31 04:58:55;;;;;;;1.08;1.00;;;25.80;49.40;;;;;;5133224;28;20127;-47
2021/07/31 05:01:21;;;;;;;0.80;0.80;;;25.80;49.30;;;;;;5133247;28;20066;-51
2021/07/31 05:03:46;;;;;;;0.90;0.85;;;25.80;49.30;;;;;;5133294;28;20387;-48
2021/07/31 05:06:12;;;;;;;1.10;1.00;;;25.80;49.30;;;;;;5132634;28;20406;-49
2021/07/31 05:08:37;;;;;;;0.80;0.80;;;25.80;49.30;;;;;;5114621;28;20050;-47
2021/07/31 05:11:07;;;;;;;1.10;1.00;;;25.70;49.20;;;;;;5132956;28;20054;-47
2021/07/31 05:13:35;;;;;;;1.10;1.00;;;25.80;49.30;;;;;;5133233;28;20054;-51
2021/07/31 05:16:01;;;;;;;0.80;0.80;;;25.80;49.40;;;;;;5133164;28;20065;-48
2021/07/31 05:18:27;;;;;;;1.00;1.00;;;25.70;49.30;;;;;;5133013;28;20126;-49
2021/07/31 05:20:52;;;;;;;1.30;1.20;;;25.70;49.30;;;;;;5132869;28;20104;-49
2021/07/31 05:23:18;;;;;;;1.00;0.90;;;25.70;49.30;;;;;;5114443;28;20051;-48
2021/07/31 05:25:44;;;;;;;0.80;0.80;;;25.70;49.30;;;;;;5132837;28;20050;-49
2021/07/31 05:28:11;;;;;;;0.98;0.93;;;25.70;49.30;;;;;;5132631;28;20063;-48
2021/07/31 05:30:40;;;;;;;1.15;0.90;;;25.70;49.40;;;;;;5113558;28;20048;-53
2021/07/31 05:33:06;;;;;;;0.82;0.73;;;25.70;49.40;;;;;;5135815;28;20050;-48
2021/07/31 05:35:32;;;;;;;0.98;0.80;;;25.70;49.30;;;;;;5136836;28;20055;-49
2021/07/31 05:37:57;;;;;;;0.82;0.82;;;25.70;49.40;;;;;;5136176;28;20053;-48
2021/07/31 05:40:23;;;;;;;1.00;0.90;;;25.70;49.30;;;;;;5136156;28;20051;-47
2021/07/31 05:42:48;;;;;;;0.80;0.80;;;25.70;49.40;;;;;;5136116;28;20058;-47
2021/07/31 05:45:14;;;;;;;0.90;0.90;;;25.70;49.30;;;;;;5136040;28;20051;-47
2021/07/31 05:47:40;;;;;;;0.80;0.80;;;25.70;49.30;;;;;;5135866;28;20135;-51
2021/07/31 05:50:08;;;;;;;1.05;0.98;;;25.70;49.30;;;;;;5135868;28;20538;-46
2021/07/31 05:52:34;;;;;;;1.20;1.10;;;25.70;49.40;;;;;;5135987;28;20044;-46
2021/07/31 05:55:00;;;;;;;0.75;0.75;;;25.70;49.40;;;;;;5135981;28;20050;-47
2021/07/31 05:57:26;;;;;;;1.05;1.00;;;25.70;49.30;;;;;;5135886;28;20495;-51
2021/07/31 05:59:51;;;;;;;0.90;0.90;;;25.70;49.30;;;;;;5135892;28;20112;-50
2021/07/31 06:02:17;;;;;;;0.70;0.70;;;25.70;49.30;;;;;;5135946;28;20047;-48
2021/07/31 06:04:43;;;;;;;0.82;0.82;;;25.70;49.30;;;;;;5135764;28;20051;-53
2021/07/31 06:07:10;;;;;;;0.73;0.73;;;25.80;49.90;;;;;;5135790;28;20107;-52
2021/07/31 06:09:40;;;;;;;0.70;0.70;;;25.80;49.30;;;;;;5135734;28;20482;-50
2021/07/31 06:12:07;;;;;;;1.00;0.90;;;25.80;49.30;;;;;;5135933;28;20050;-50
2021/07/31 06:14:34;;;;;;;0.70;0.70;;;25.70;49.30;;;;;;5135612;28;20051;-50
2021/07/31 06:17:00;;;;;;;1.10;1.00;;;25.70;49.20;;;;;;5135607;28;20106;-50
2021/07/31 06:19:30;;;;;;;1.17;1.08;;;25.80;49.30;;;;;;5135535;28;20129;-46
2021/07/31 06:21:57;;;;;;;0.82;0.82;;;25.70;49.20;;;;;;5117631;28;20058;-50
2021/07/31 06:24:22;;;;;;;1.15;1.05;;;25.80;49.30;;;;;;5135526;28;20109;-48
2021/07/31 06:26:48;;;;;;;0.85;0.82;;;25.80;49.30;;;;;;5135487;28;20071;-47
2021/07/31 06:29:15;;;;;;;0.90;0.90;;;25.80;49.30;;;;;;5135378;28;20043;-52
2021/07/31 06:31:41;;;;;;;0.90;0.90;;;25.80;49.30;;;;;;5135367;28;20043;-49
2021/07/31 06:34:08;;;;;;;0.80;0.80;;;25.70;49.20;;;;;;5135322;28;20055;-54
2021/07/31 06:36:34;;;;;;;1.00;0.90;;;25.80;49.30;;;;;;5116860;28;20407;-49
2021/07/31 06:39:01;;;;;;;0.90;0.90;;;25.80;49.30;;;;;;5134863;28;20150;-51
2021/07/31 06:41:27;;;;;;;0.80;0.80;;;25.80;49.30;;;;;;5134867;28;20055;-47
2021/07/31 06:43:52;;;;;;;1.17;1.08;;;25.80;49.30;;;;;;5114227;28;20047;-47
2021/07/31 06:46:24;;;;;;;1.05;0.95;;;25.80;49.20;;;;;;5134943;28;20058;-48
2021/07/31 06:48:51;;;;;;;1.02;1.02;;;25.80;49.20;;;;;;5134940;28;20063;-46
2021/07/31 06:51:17;;;;;;;0.80;0.80;;;25.80;49.20;;;;;;5135267;28;20047;-51
2021/07/31 06:53:43;;;;;;;0.90;0.90;;;25.80;49.20;;;;;;5134844;28;20058;-50
2021/07/31 06:56:09;;;;;;;0.77;0.77;;;25.80;49.20;;;;;;5134991;28;20078;-50
2021/07/31 06:58:35;;;;;;;0.98;0.90;;;25.80;49.10;;;;;;5134542;28;20457;-51
2021/07/31 07:01:00;;;;;;;1.33;1.05;;;25.80;49.10;;;;;;5135180;28;20074;-52
2021/07/31 07:03:26;;;;;;;0.70;0.70;;;25.80;49.10;;;;;;5134780;28;20456;-48
2021/07/31 07:05:51;;;;;;;1.08;1.00;;;25.80;49.00;;;;;;5134821;28;20448;-50
2021/07/31 07:08:17;;;;;;;0.73;0.73;;;25.80;49.00;;;;;;5135256;28;20126;-46
2021/07/31 07:10:42;;;;;;;0.82;0.82;;;25.80;49.00;;;;;;5134617;28;20103;-47
2021/07/31 07:13:08;;;;;;;1.20;1.10;;;25.80;49.00;;;;;;5134932;28;20046;-51
2021/07/31 07:15:35;;;;;;;0.80;0.80;;;25.90;49.00;;;;;;5134626;28;20047;-49
2021/07/31 07:18:01;;;;;;;1.05;0.95;;;25.90;49.00;;;;;;5134711;28;20047;-48
2021/07/31 07:20:27;;;;;;;0.82;0.82;;;26.00;49.00;;;;;;5134923;28;20047;-52
2021/07/31 07:22:53;;;;;;;1.00;1.00;;;26.00;48.90;;;;;;5134422;28;20058;-53
2021/07/31 07:25:19;;;;;;;0.80;0.80;;;26.00;48.70;;;;;;5134535;28;20400;-49
2021/07/31 07:27:44;;;;;;;0.93;0.80;;;26.10;48.70;;;;;;5134445;28;20130;-50
2021/07/31 07:30:11;;;;;;;0.70;0.70;;;26.10;48.60;;;;;;5115725;28;20051;-46
2021/07/31 07:32:36;;;;;;;0.85;0.82;;;26.10;48.70;;;;;;5134628;28;20134;-49
2021/07/31 07:35:03;;;;;;;0.90;0.90;;;26.10;48.50;;;;;;5134268;28;20142;-45
2021/07/31 07:37:29;;;;;;;0.90;0.90;;;26.10;48.50;;;;;;5115888;28;20100;-47
2021/07/31 07:39:54;;;;;;;0.85;0.85;;;26.10;48.50;;;;;;5134596;28;20438;-49
2021/07/31 07:42:20;;;;;;;0.90;0.90;;;26.00;48.50;;;;;;5134200;28;20043;-49
2021/07/31 07:44:45;;;;;;;0.80;0.80;;;26.00;48.60;;;;;;5134099;28;20410;-49
2021/07/31 07:47:11;;;;;;;0.80;0.80;;;26.00;48.70;;;;;;5134720;28;20081;-46
2021/07/31 07:49:37;;;;;;;0.93;0.93;;;26.00;48.70;;;;;;5134258;28;20510;-49
2021/07/31 07:52:03;;;;;;;0.70;0.70;;;26.00;48.70;;;;;;5133914;28;20051;-53
2021/07/31 07:54:29;;;;;;;0.88;0.82;;;26.00;48.70;;;;;;5133033;27;20188;-52
2021/07/31 07:56:56;;;;;;;1.17;0.80;;;26.00;48.70;;;;;;5114836;28;20134;-48
2021/07/31 07:59:21;;;;;;;0.80;0.80;;;26.00;48.80;;;;;;5134036;28;20051;-53
2021/07/31 08:01:47;;;;;;;0.80;0.80;;;26.00;48.80;;;;;;5133819;28;20050;-49
2021/07/31 08:04:13;;;;;;;0.80;0.80;;;26.00;48.80;;;;;;5133934;28;20047;-47
2021/07/31 08:06:40;;;;;;;0.82;0.82;;;26.00;49.30;;;;;;5115455;28;20051;-50
2021/07/31 08:09:05;;;;;;;0.70;0.70;;;26.00;48.70;;;;;;5133840;28;20051;-46
2021/07/31 08:11:31;;;;;;;0.88;0.85;;;26.00;48.70;;;;;;5133922;28;20452;-48
2021/07/31 08:13:57;;;;;;;1.10;1.00;;;26.00;48.80;;;;;;5133591;28;20046;-47
2021/07/31 08:16:23;;;;;;;0.80;0.80;;;26.00;48.80;;;;;;5133935;28;20077;-51
2021/07/31 08:18:49;;;;;;;1.08;1.02;;;25.90;48.70;;;;;;5133416;28;20051;-53
2021/07/31 08:21:14;;;;;;;0.82;0.82;;;26.00;48.80;;;;;;5114269;28;20116;-49
2021/07/31 08:23:41;;;;;;;1.02;0.80;;;26.00;48.80;;;;;;5115577;28;20126;-47
2021/07/31 08:26:12;;;;;;;0.82;0.82;;;26.00;48.70;;;;;;5133539;28;20531;-50
2021/07/31 08:28:41;;;;;;;1.00;1.00;;;26.00;48.70;;;;;;5134128;28;20055;-48
2021/07/31 08:31:08;;;;;;;0.70;0.70;;;26.10;48.60;;;;;;5133544;28;20047;-47
2021/07/31 08:33:34;;;;;;;1.40;1.17;;;26.10;48.50;;;;;;5133727;28;20073;-48
2021/07/31 08:36:00;;;;;;;1.33;0.80;;;26.20;48.40;;;;;;5115406;28;20051;-48
2021/07/31 08:38:26;;;;;;;1.23;0.80;;;26.20;48.30;;;;;;5133480;28;20133;-46
2021/07/31 08:40:52;;;;;;;1.00;0.90;;;26.30;48.80;;;;;;5133471;28;20058;-47
2021/07/31 08:43:17;;;;;;;0.80;0.77;;;26.30;48.20;;;;;;5133516;28;20200;-46
2021/07/31 08:45:45;;;;;;;0.80;0.80;;;26.30;48.10;;;;;;5133466;28;20055;-46
2021/07/31 08:48:11;;;;;;;0.95;0.90;;;26.30;48.10;;;;;;5133337;28;20088;-48
2021/07/31 08:50:38;;;;;;;0.88;0.88;;;26.30;48.20;;;;;;5133172;28;20062;-52
2021/07/31 08:53:04;;;;;;;1.05;1.05;;;26.20;48.10;;;;;;5133261;28;20479;-48
2021/07/31 08:55:29;;;;;;;0.70;0.70;;;26.20;48.20;;;;;;5133329;28;20046;-46
2021/07/31 08:57:55;;;;;;;0.80;0.80;;;26.20;48.20;;;;;;5133456;28;20047;-48
2021/07/31 09:00:20;;;;;;;1.15;0.80;;;26.20;48.30;;;;;;5133552;28;20051;-48
2021/07/31 09:02:47;;;;;;;0.70;0.70;;;26.20;48.40;;;;;;5133238;28;20048;-52
2021/07/31 09:05:48;;;;;;;0.70;0.70;;;26.10;48.30;;;;;;5133469;27;20051;-53
2021/07/31 09:08:14;;;;;;;0.98;0.95;;;26.10;48.30;;;;;;5100778;28;20080;-47
2021/07/31 09:10:42;;;;;;;0.80;0.77;;;26.10;48.30;;;;;;5137031;28;20432;-51
2021/07/31 09:13:14;;;;;;;0.80;0.80;;;26.10;48.30;;;;;;5136544;28;20082;-51
2021/07/31 09:15:42;;;;;;;0.90;0.90;;;26.10;48.30;;;;;;5136517;28;20550;-51
2021/07/31 09:18:30;;;;;;;1.02;0.93;;;26.20;48.40;;;;;;5136390;28;20138;-51
2021/07/31 09:21:03;;;;;;;0.95;0.70;;;26.20;48.30;;;;;;5117995;28;20047;-49
2021/07/31 09:23:37;;;;;;;0.80;0.80;;;26.20;48.20;;;;;;5136523;28;20039;-52
2021/07/31 09:26:02;;;;;;;0.90;0.90;;;26.30;48.20;;;;;;5136643;28;20104;-51
2021/07/31 09:28:29;;;;;;;0.80;0.80;;;26.30;48.20;;;;;;5136684;28;20051;-48
2021/07/31 09:30:55;;;;;;;0.85;0.85;;;26.30;48.10;;;;;;5136371;28;20103;-53
2021/07/31 09:33:21;;;;;;;0.90;0.90;;;26.30;48.00;;;;;;5136333;28;20070;-48
2021/07/31 09:35:59;;;;;;;0.85;0.85;;;26.30;47.90;;;;;;5100854;28;20047;-51
2021/07/31 09:38:38;;;;;;;0.80;0.80;;;26.40;47.90;;;;;;5136453;28;20066;-54
2021/07/31 09:41:21;;;;;;;0.82;0.82;;;26.40;47.80;;;;;;5136124;28;20096;-54
2021/07/31 09:44:03;;;;;;;1.27;0.80;;;26.50;47.80;;;;;;5136234;28;20054;-52
2021/07/31 09:46:49;;;;;;;0.63;0.63;;;26.40;47.70;;;;;;5117141;28;20044;-53
2021/07/31 09:49:20;;;;;;;0.70;0.70;;;26.50;48.30;;;;;;5136072;28;20057;-52
2021/07/31 09:51:51;;;;;;;0.90;0.90;;;26.50;47.70;;;;;;5136389;28;20074;-48
2021/07/31 09:54:17;;;;;;;;;;;26.50;47.60;;;;;;5136376;28;20059;-51
2021/07/31 09:56:47;;;;;;;1.00;1.00;;;26.50;47.60;;;;;;5136022;28;19915;-50
2021/07/31 09:59:15;;;;;;;0.80;0.80;;;26.50;47.60;;;;;;5136075;28;20058;-54
2021/07/31 10:01:52;;;;;;;0.82;0.82;;;26.50;47.70;;;;;;5136259;28;20051;-50
2021/07/31 10:04:18;;;;;;;0.77;0.77;;;26.40;47.60;;;;;;5136445;28;20067;-50
2021/07/31 10:06:45;;;;;;;1.10;1.00;;;26.40;47.70;;;;;;5135906;28;20039;-52
2021/07/31 10:09:13;;;;;;;1.00;0.90;;;26.40;47.80;;;;;;5135755;28;20460;-48
2021/07/31 10:11:40;;;;;;;0.70;0.70;;;26.30;47.90;;;;;;5136027;28;20095;-52
2021/07/31 10:14:10;;;;;;;0.80;0.80;;;26.30;48.00;;;;;;5135479;28;20050;-48
2021/07/31 10:16:47;;;;;;;0.80;0.80;;;26.30;48.00;;;;;;5135389;27;20054;-52
2021/07/31 10:19:14;;;;;;;0.73;0.73;;;26.30;48.00;;;;;;5135415;28;20053;-46
2021/07/31 10:22:00;;;;;;;0.70;0.70;;;26.30;48.00;;;;;;5135526;28;20050;-48
2021/07/31 10:24:28;;;;;;;0.70;0.70;;;26.30;48.00;;;;;;5135821;28;20459;-47
2021/07/31 10:27:15;;;;;;;0.77;0.77;;;26.30;48.00;;;;;;5100292;28;20054;-50
2021/07/31 10:29:48;;;;;;;1.05;0.88;;;26.40;48.00;;;;;;5135438;28;20482;-48
2021/07/31 10:32:38;;;;;;;1.65;0.82;;;26.40;47.90;;;;;;5135335;28;20097;-48
2021/07/31 10:35:21;;;;;;;0.70;0.70;;;26.40;47.70;;;;;;5115723;28;20043;-47
2021/07/31 10:37:48;;;;;;;0.70;0.70;;;26.50;47.80;;;;;;5134899;28;20062;-47
2021/07/31 10:40:29;;;;;;;0.60;0.60;;;26.40;47.70;;;;;;5135509;28;20051;-47
2021/07/31 10:42:54;;;;;;;0.80;0.80;;;26.40;47.70;;;;;;5135625;28;20047;-47
2021/07/31 10:45:31;;;;;;;0.80;0.80;;;26.40;47.70;;;;;;5116703;28;20046;-49
2021/07/31 10:48:06;;;;;;;0.90;0.90;;;26.40;47.80;;;;;;5135033;28;20051;-48
2021/07/31 10:50:31;;;;;;;0.80;0.80;;;26.40;47.80;;;;;;5135186;28;20047;-50
2021/07/31 10:53:05;;;;;;;1.00;0.82;;;26.30;47.80;;;;;;5135313;28;20050;-47
2021/07/31 10:55:36;;;;;;;1.90;1.00;;;26.30;47.80;;;;;;5135100;28;20051;-48
2021/07/31 10:58:02;;;;;;;0.73;0.73;;;26.30;47.80;;;;;;5134904;28;20046;-52
2021/07/31 11:00:32;;;;;;;0.73;0.60;;;26.40;47.90;;;;;;5134871;28;20054;-53
2021/07/31 11:02:58;;;;;;;0.70;0.70;;;26.40;47.90;;;;;;5134961;28;20513;-49
2021/07/31 11:05:25;;;;;;;0.70;0.70;;;26.40;47.80;;;;;;5134761;28;20051;-49
2021/07/31 11:07:56;;;;;;;0.60;0.60;;;26.40;47.70;;;;;;5134879;28;20487;-54
2021/07/31 11:10:39;;;;;;;0.80;0.80;;;26.50;47.70;;;;;;5134833;28;20084;-50
2021/07/31 11:13:06;;;;;;;0.93;0.88;;;26.40;47.60;;;;;;5134689;28;20073;-51
2021/07/31 11:15:32;;;;;;;0.70;0.70;;;26.40;47.60;;;;;;5134811;28;20055;-51
2021/07/31 11:18:00;;;;;;;1.73;1.05;;;26.50;47.70;;;;;;5134635;28;20128;-50
2021/07/31 11:20:31;;;;;;;1.15;0.80;;;26.50;47.60;;;;;;5134625;28;20086;-50
2021/07/31 11:23:02;;;;;;;1.02;0.80;;;26.50;47.60;;;;;;5134647;28;20043;-48
2021/07/31 11:25:27;;;;;;;0.77;0.77;;;26.50;47.60;;;;;;5135138;28;20506;-51
2021/07/31 11:28:12;;;;;;;0.93;0.82;;;26.40;47.60;;;;;;5134444;28;20078;-55
2021/07/31 11:30:42;;;;;;;1.17;0.80;;;26.40;47.60;;;;;;5133494;28;20066;-50
2021/07/31 11:33:35;;;;;;;0.73;0.73;;;26.40;47.60;;;;;;5134799;28;20047;-55
2021/07/31 11:36:12;;;;;;;0.60;0.60;;;26.40;47.60;;;;;;5134605;28;20131;-50
2021/07/31 11:38:40;;;;;;;0.75;0.75;;;26.40;47.60;;;;;;5134519;28;20142;-52
2021/07/31 11:41:10;;;;;;;1.08;0.75;;;26.50;47.60;;;;;;5114314;28;20383;-49
2021/07/31 11:43:57;;;;;;;0.75;0.70;;;26.50;47.50;;;;;;5134474;28;20360;-52
2021/07/31 11:46:33;;;;;;;0.63;0.63;;;26.50;47.30;;;;;;5134119;28;20062;-53
2021/07/31 11:49:01;;;;;;;1.15;0.88;;;26.60;47.50;;;;;;5134392;28;20406;-51
2021/07/31 11:51:28;;;;;;;0.70;0.70;;;26.50;47.30;;;;;;5133926;28;20490;-48
2021/07/31 11:53:53;;;;;;;0.73;0.73;;;26.50;47.30;;;;;;5134149;28;20046;-48
2021/07/31 11:56:21;;;;;;;0.80;0.80;;;26.50;47.30;;;;;;5133934;28;20051;-50
2021/07/31 11:58:49;;;;;;;0.98;0.90;;;26.50;47.40;;;;;;5133761;28;20558;-52
2021/07/31 12:01:17;;;;;;;0.95;0.80;;;26.50;47.50;;;;;;5133854;28;20108;-53
2021/07/31 12:03:53;;;;;;;1.08;1.02;;;26.50;47.50;;;;;;5133944;28;20134;-53
2021/07/31 12:06:35;;;;;;;0.70;0.70;;;26.50;47.50;;;;;;5134119;28;20047;-51
2021/07/31 12:09:03;;;;;;;0.75;0.75;;;26.50;47.50;;;;;;5133778;28;20073;-53
2021/07/31 12:11:38;;;;;;;0.60;0.60;;;26.50;47.50;;;;;;5133702;28;20086;-52
2021/07/31 12:14:25;;;;;;;0.93;0.90;;;26.50;47.50;;;;;;5133873;28;20100;-52
2021/07/31 12:16:51;;;;;;;0.88;0.88;;;26.50;47.40;;;;;;5133475;28;20039;-51
2021/07/31 12:19:17;;;;;;;0.70;0.70;;;26.50;47.30;;;;;;5133572;28;20130;-51
2021/07/31 12:21:43;;;;;;;0.80;0.80;;;26.60;47.40;;;;;;5133773;28;20073;-53
2021/07/31 12:24:18;;;;;;;0.65;0.65;;;26.50;47.30;;;;;;5133746;28;20058;-52
2021/07/31 12:26:53;;;;;;;0.60;0.60;;;26.60;47.30;;;;;;5133709;28;20050;-49
2021/07/31 12:29:31;;;;;;;0.80;0.80;;;26.60;47.30;;;;;;5099011;28;20143;-54
2021/07/31 12:32:23;;;;;;;0.82;0.75;;;26.50;47.30;;;;;;5133607;28;20057;-51
2021/07/31 12:34:50;;;;;;;0.85;0.85;;;26.50;47.20;;;;;;5133937;28;20100;-55
2021/07/31 12:37:16;;;;;;;0.77;0.77;;;26.50;47.30;;;;;;5133729;28;20054;-52
2021/07/31 12:39:42;;;;;;;0.80;0.80;;;26.60;47.40;;;;;;5133812;27;20055;-53
2021/07/31 12:42:09;;;;;;;1.00;0.80;;;26.60;47.30;;;;;;5137082;28;20385;-51
2021/07/31 12:44:35;;;;;;;0.68;0.68;;;26.60;47.30;;;;;;5137262;28;20126;-50
2021/07/31 12:47:01;;;;;;;0.60;0.60;;;26.50;47.20;;;;;;5137157;28;20043;-51
2021/07/31 12:49:27;;;;;;;0.93;0.70;;;26.50;47.20;;;;;;5136963;28;20051;-52
2021/07/31 12:51:52;;;;;;;0.82;0.82;;;26.50;47.30;;;;;;5137643;28;20051;-53
2021/07/31 12:54:18;;;;;;;1.08;0.80;;;26.50;47.30;;;;;;5136872;28;20070;-54
2021/07/31 12:56:43;;;;;;;0.70;0.70;;;26.50;47.30;;;;;;5136945;28;20088;-50